sensor_id;sensor_type;location;lat;lon;timestamp;temperature;humidity
9790;DHT22;4934;50.852;8.098;2023-09-18T00:01:04;17.50;99.90
9790;DHT22;4934;50.852;8.098;2023-09-18T00:03:31;17.40;99.90
9790;DHT22;4934;50.852;8.098;2023-09-18T00:05:56;17.40;99.90
9790;DHT22;4934;50.852;8.098;2023-09-18T00:08:22;17.30;99.90
9790;DHT22;4934;50.852;8.098;2023-09-18T00:10:53;17.30;99.90
9790;DHT22;4934;50.852;8.098;2023-09-18T00:13:19;17.20;99.90
9790;DHT22;4934;50.852;8.098;2023-09-18T00:15:45;17.10;99.90
9790;DHT22;4934;50.852;8.098;2023-09-18T00:18:16;17.10;99.90
9790;DHT22;4934;50.852;8.098;2023-09-18T00:20:42;17.10;99.90
9790;DHT22;4934;50.852;8.098;2023-09-18T00:23:09;17.10;99.90
9790;DHT22;4934;50.852;8.098;2023-09-18T00:25:35;17.10;99.90
9790;DHT22;4934;50.852;8.098;2023-09-18T00:28:02;17.20;99.90
9790;DHT22;4934;50.852;8.098;2023-09-18T00:30:28;17.20;99.90
9790;DHT22;4934;50.852;8.098;2023-09-18T00:32:53;17.20;99.90
9790;DHT22;4934;50.852;8.098;2023-09-18T00:35:19;17.20;99.90
9790;DHT22;4934;50.852;8.098;2023-09-18T00:37:44;17.20;99.90
9790;DHT22;4934;50.852;8.098;2023-09-18T00:40:10;17.30;99.90
9790;DHT22;4934;50.852;8.098;2023-09-18T00:42:36;17.20;99.90
9790;DHT22;4934;50.852;8.098;2023-09-18T00:45:02;17.30;99.90
9790;DHT22;4934;50.852;8.098;2023-09-18T00:47:28;17.20;99.90
9790;DHT22;4934;50.852;8.098;2023-09-18T00:49:54;17.20;99.90
9790;DHT22;4934;50.852;8.098;2023-09-18T00:52:22;17.20;99.90
9790;DHT22;4934;50.852;8.098;2023-09-18T00:54:48;17.20;99.90
9790;DHT22;4934;50.852;8.098;2023-09-18T00:57:15;17.30;99.90
9790;DHT22;4934;50.852;8.098;2023-09-18T00:59:40;17.30;99.90
9790;DHT22;4934;50.852;8.098;2023-09-18T01:02:06;17.30;99.90
9790;DHT22;4934;50.852;8.098;2023-09-18T01:04:33;17.30;99.90
9790;DHT22;4934;50.852;8.098;2023-09-18T01:07:02;17.30;99.90
9790;DHT22;4934;50.852;8.098;2023-09-18T01:09:30;17.30;99.90
9790;DHT22;4934;50.852;8.098;2023-09-18T01:12:13;17.30;99.90
9790;DHT22;4934;50.852;8.098;2023-09-18T01:14:56;17.30;99.90
9790;DHT22;4934;50.852;8.098;2023-09-18T01:17:22;17.40;99.90
9790;DHT22;4934;50.852;8.098;2023-09-18T01:19:48;17.40;99.90
9790;DHT22;4934;50.852;8.098;2023-09-18T01:22:16;17.50;99.90
9790;DHT22;4934;50.852;8.098;2023-09-18T01:24:43;17.60;99.90
9790;DHT22;4934;50.852;8.098;2023-09-18T01:27:11;17.70;99.90
9790;DHT22;4934;50.852;8.098;2023-09-18T01:29:38;17.80;99.90
9790;DHT22;4934;50.852;8.098;2023-09-18T01:32:04;17.90;99.90
9790;DHT22;4934;50.852;8.098;2023-09-18T01:35:00;18.00;99.90
9790;DHT22;4934;50.852;8.098;2023-09-18T01:37:28;18.00;99.90
9790;DHT22;4934;50.852;8.098;2023-09-18T01:39:55;18.00;99.90
9790;DHT22;4934;50.852;8.098;2023-09-18T01:42:25;18.00;99.90
9790;DHT22;4934;50.852;8.098;2023-09-18T01:44:52;18.00;99.90
9790;DHT22;4934;50.852;8.098;2023-09-18T01:47:19;18.00;99.90
9790;DHT22;4934;50.852;8.098;2023-09-18T01:49:46;18.00;99.90
9790;DHT22;4934;50.852;8.098;2023-09-18T01:52:12;18.00;99.90
9790;DHT22;4934;50.852;8.098;2023-09-18T01:54:37;17.90;99.90
9790;DHT22;4934;50.852;8.098;2023-09-18T01:57:03;18.00;99.90
9790;DHT22;4934;50.852;8.098;2023-09-18T01:59:30;18.10;99.90
9790;DHT22;4934;50.852;8.098;2023-09-18T02:01:56;18.10;99.90
9790;DHT22;4934;50.852;8.098;2023-09-18T02:04:22;18.20;99.90
9790;DHT22;4934;50.852;8.098;2023-09-18T02:06:49;18.30;99.90
9790;DHT22;4934;50.852;8.098;2023-09-18T02:09:16;18.30;99.90
9790;DHT22;4934;50.852;8.098;2023-09-18T02:11:43;18.30;99.90
9790;DHT22;4934;50.852;8.098;2023-09-18T02:14:10;18.30;99.90
9790;DHT22;4934;50.852;8.098;2023-09-18T02:16:37;18.20;99.90
9790;DHT22;4934;50.852;8.098;2023-09-18T02:19:03;18.20;99.90
9790;DHT22;4934;50.852;8.098;2023-09-18T02:21:30;18.20;99.90
9790;DHT22;4934;50.852;8.098;2023-09-18T02:23:56;18.30;99.90
9790;DHT22;4934;50.852;8.098;2023-09-18T02:26:23;18.30;99.90
9790;DHT22;4934;50.852;8.098;2023-09-18T02:28:49;18.20;99.90
9790;DHT22;4934;50.852;8.098;2023-09-18T02:31:15;18.20;99.90
9790;DHT22;4934;50.852;8.098;2023-09-18T02:33:43;18.30;99.90
9790;DHT22;4934;50.852;8.098;2023-09-18T02:36:08;18.20;99.90
9790;DHT22;4934;50.852;8.098;2023-09-18T02:38:34;18.20;99.90
9790;DHT22;4934;50.852;8.098;2023-09-18T02:41:00;18.20;99.90
9790;DHT22;4934;50.852;8.098;2023-09-18T02:43:26;18.30;99.90
9790;DHT22;4934;50.852;8.098;2023-09-18T02:45:52;18.30;99.90
9790;DHT22;4934;50.852;8.098;2023-09-18T02:48:18;18.40;99.90
9790;DHT22;4934;50.852;8.098;2023-09-18T02:50:44;18.60;99.90
9790;DHT22;4934;50.852;8.098;2023-09-18T02:53:23;18.60;99.90
9790;DHT22;4934;50.852;8.098;2023-09-18T02:55:52;18.60;99.90
9790;DHT22;4934;50.852;8.098;2023-09-18T02:58:18;18.60;99.90
9790;DHT22;4934;50.852;8.098;2023-09-18T03:00:50;18.60;99.90
9790;DHT22;4934;50.852;8.098;2023-09-18T03:03:16;18.60;99.90
9790;DHT22;4934;50.852;8.098;2023-09-18T03:05:42;18.60;99.90
9790;DHT22;4934;50.852;8.098;2023-09-18T03:08:10;18.60;99.90
9790;DHT22;4934;50.852;8.098;2023-09-18T03:10:38;18.60;99.90
9790;DHT22;4934;50.852;8.098;2023-09-18T03:13:05;18.60;99.90
9790;DHT22;4934;50.852;8.098;2023-09-18T03:15:31;18.70;99.90
9790;DHT22;4934;50.852;8.098;2023-09-18T03:18:00;18.70;99.90
9790;DHT22;4934;50.852;8.098;2023-09-18T03:20:27;18.60;99.90
9790;DHT22;4934;50.852;8.098;2023-09-18T03:22:54;18.50;99.90
9790;DHT22;4934;50.852;8.098;2023-09-18T03:25:20;18.50;99.90
9790;DHT22;4934;50.852;8.098;2023-09-18T03:27:45;18.50;99.90
9790;DHT22;4934;50.852;8.098;2023-09-18T03:30:11;18.40;99.90
9790;DHT22;4934;50.852;8.098;2023-09-18T03:32:42;18.30;99.90
9790;DHT22;4934;50.852;8.098;2023-09-18T03:35:09;18.30;99.90
9790;DHT22;4934;50.852;8.098;2023-09-18T03:37:43;18.30;99.90
9790;DHT22;4934;50.852;8.098;2023-09-18T03:40:09;18.40;99.90
9790;DHT22;4934;50.852;8.098;2023-09-18T03:42:35;18.30;99.90
9790;DHT22;4934;50.852;8.098;2023-09-18T03:45:00;18.30;99.90
9790;DHT22;4934;50.852;8.098;2023-09-18T03:47:26;18.20;99.90
9790;DHT22;4934;50.852;8.098;2023-09-18T03:49:52;18.30;99.90
9790;DHT22;4934;50.852;8.098;2023-09-18T03:52:17;18.20;99.90
9790;DHT22;4934;50.852;8.098;2023-09-18T03:54:43;18.20;99.90
9790;DHT22;4934;50.852;8.098;2023-09-18T03:57:09;18.20;99.90
9790;DHT22;4934;50.852;8.098;2023-09-18T03:59:34;18.20;99.90
9790;DHT22;4934;50.852;8.098;2023-09-18T04:02:00;18.30;99.90
9790;DHT22;4934;50.852;8.098;2023-09-18T04:04:25;18.30;99.90
9790;DHT22;4934;50.852;8.098;2023-09-18T04:06:51;18.20;99.90
9790;DHT22;4934;50.852;8.098;2023-09-18T04:09:16;18.10;99.90
9790;DHT22;4934;50.852;8.098;2023-09-18T04:11:43;18.00;99.90
9790;DHT22;4934;50.852;8.098;2023-09-18T04:14:09;18.00;99.90
9790;DHT22;4934;50.852;8.098;2023-09-18T04:16:34;18.10;99.90
9790;DHT22;4934;50.852;8.098;2023-09-18T04:19:04;18.00;99.90
9790;DHT22;4934;50.852;8.098;2023-09-18T04:21:29;18.00;99.90
9790;DHT22;4934;50.852;8.098;2023-09-18T04:23:55;18.00;99.90
9790;DHT22;4934;50.852;8.098;2023-09-18T04:26:27;18.00;99.90
9790;DHT22;4934;50.852;8.098;2023-09-18T04:29:02;18.00;99.90
9790;DHT22;4934;50.852;8.098;2023-09-18T04:31:28;18.00;99.90
9790;DHT22;4934;50.852;8.098;2023-09-18T04:33:55;17.80;99.90
9790;DHT22;4934;50.852;8.098;2023-09-18T04:36:20;17.80;99.90
9790;DHT22;4934;50.852;8.098;2023-09-18T04:38:46;17.90;99.90
9790;DHT22;4934;50.852;8.098;2023-09-18T04:41:11;17.90;99.90
9790;DHT22;4934;50.852;8.098;2023-09-18T04:43:37;17.90;99.90
9790;DHT22;4934;50.852;8.098;2023-09-18T04:46:06;17.80;99.90
9790;DHT22;4934;50.852;8.098;2023-09-18T04:48:32;17.90;99.90
9790;DHT22;4934;50.852;8.098;2023-09-18T04:50:59;17.90;99.90
9790;DHT22;4934;50.852;8.098;2023-09-18T04:53:25;17.80;99.90
9790;DHT22;4934;50.852;8.098;2023-09-18T04:55:50;17.70;99.90
9790;DHT22;4934;50.852;8.098;2023-09-18T04:58:17;17.70;99.90
9790;DHT22;4934;50.852;8.098;2023-09-18T05:00:43;17.70;99.90
9790;DHT22;4934;50.852;8.098;2023-09-18T05:03:09;17.70;99.90
9790;DHT22;4934;50.852;8.098;2023-09-18T05:05:36;17.70;99.90
9790;DHT22;4934;50.852;8.098;2023-09-18T05:08:02;17.70;99.90
9790;DHT22;4934;50.852;8.098;2023-09-18T05:10:35;17.70;99.90
9790;DHT22;4934;50.852;8.098;2023-09-18T05:13:01;17.60;99.90
9790;DHT22;4934;50.852;8.098;2023-09-18T05:15:27;17.50;99.90
9790;DHT22;4934;50.852;8.098;2023-09-18T05:17:55;17.50;99.90
9790;DHT22;4934;50.852;8.098;2023-09-18T05:20:24;17.60;99.90
9790;DHT22;4934;50.852;8.098;2023-09-18T05:22:53;17.50;99.90
9790;DHT22;4934;50.852;8.098;2023-09-18T05:25:19;17.50;99.90
9790;DHT22;4934;50.852;8.098;2023-09-18T05:27:47;17.50;99.90
9790;DHT22;4934;50.852;8.098;2023-09-18T05:30:19;17.50;99.90
9790;DHT22;4934;50.852;8.098;2023-09-18T05:32:47;17.50;99.90
9790;DHT22;4934;50.852;8.098;2023-09-18T05:35:14;17.40;99.90
9790;DHT22;4934;50.852;8.098;2023-09-18T05:37:41;17.50;99.90
9790;DHT22;4934;50.852;8.098;2023-09-18T05:40:08;17.40;99.90
9790;DHT22;4934;50.852;8.098;2023-09-18T05:42:41;17.40;99.90
9790;DHT22;4934;50.852;8.098;2023-09-18T05:45:12;17.30;99.90
9790;DHT22;4934;50.852;8.098;2023-09-18T05:47:38;17.40;99.90
9790;DHT22;4934;50.852;8.098;2023-09-18T05:50:09;17.40;99.90
9790;DHT22;4934;50.852;8.098;2023-09-18T05:52:34;17.50;99.90
9790;DHT22;4934;50.852;8.098;2023-09-18T05:55:04;17.50;99.90
9790;DHT22;4934;50.852;8.098;2023-09-18T05:57:30;17.60;99.90
9790;DHT22;4934;50.852;8.098;2023-09-18T05:59:56;17.60;99.90
9790;DHT22;4934;50.852;8.098;2023-09-18T06:02:22;17.60;99.90
9790;DHT22;4934;50.852;8.098;2023-09-18T06:04:48;17.60;99.90
9790;DHT22;4934;50.852;8.098;2023-09-18T06:07:14;17.70;99.90
9790;DHT22;4934;50.852;8.098;2023-09-18T06:09:40;17.70;99.90
9790;DHT22;4934;50.852;8.098;2023-09-18T06:12:06;17.80;99.90
9790;DHT22;4934;50.852;8.098;2023-09-18T06:14:32;17.90;99.90
9790;DHT22;4934;50.852;8.098;2023-09-18T06:17:03;17.90;99.90
9790;DHT22;4934;50.852;8.098;2023-09-18T06:19:29;18.00;99.90
9790;DHT22;4934;50.852;8.098;2023-09-18T06:21:54;18.00;99.90
9790;DHT22;4934;50.852;8.098;2023-09-18T06:24:20;18.00;99.90
9790;DHT22;4934;50.852;8.098;2023-09-18T06:26:45;18.10;99.90
9790;DHT22;4934;50.852;8.098;2023-09-18T06:29:11;18.10;99.90
9790;DHT22;4934;50.852;8.098;2023-09-18T06:31:36;18.10;99.90
9790;DHT22;4934;50.852;8.098;2023-09-18T06:34:02;18.20;99.90
9790;DHT22;4934;50.852;8.098;2023-09-18T06:36:27;18.20;99.90
9790;DHT22;4934;50.852;8.098;2023-09-18T06:38:53;18.30;99.90
9790;DHT22;4934;50.852;8.098;2023-09-18T06:41:19;18.30;99.90
9790;DHT22;4934;50.852;8.098;2023-09-18T06:43:44;18.40;99.90
9790;DHT22;4934;50.852;8.098;2023-09-18T06:46:10;18.40;99.90
9790;DHT22;4934;50.852;8.098;2023-09-18T06:48:36;18.40;99.90
9790;DHT22;4934;50.852;8.098;2023-09-18T06:51:02;18.50;99.90
9790;DHT22;4934;50.852;8.098;2023-09-18T06:53:28;18.50;99.90
9790;DHT22;4934;50.852;8.098;2023-09-18T06:55:54;18.50;99.90
9790;DHT22;4934;50.852;8.098;2023-09-18T06:58:20;18.60;99.90
9790;DHT22;4934;50.852;8.098;2023-09-18T07:00:46;18.60;99.90
9790;DHT22;4934;50.852;8.098;2023-09-18T07:03:12;18.60;99.90
9790;DHT22;4934;50.852;8.098;2023-09-18T07:05:39;18.70;99.90
9790;DHT22;4934;50.852;8.098;2023-09-18T07:08:05;18.70;99.90
9790;DHT22;4934;50.852;8.098;2023-09-18T07:10:35;18.70;99.90
9790;DHT22;4934;50.852;8.098;2023-09-18T07:13:01;18.80;99.90
9790;DHT22;4934;50.852;8.098;2023-09-18T07:15:26;18.80;99.90
9790;DHT22;4934;50.852;8.098;2023-09-18T07:17:52;18.90;99.90
9790;DHT22;4934;50.852;8.098;2023-09-18T07:20:17;18.90;99.90
9790;DHT22;4934;50.852;8.098;2023-09-18T07:22:46;19.00;99.90
9790;DHT22;4934;50.852;8.098;2023-09-18T07:25:12;19.00;99.90
9790;DHT22;4934;50.852;8.098;2023-09-18T07:27:38;19.00;99.90
9790;DHT22;4934;50.852;8.098;2023-09-18T07:30:10;19.00;99.90
9790;DHT22;4934;50.852;8.098;2023-09-18T07:32:36;19.00;99.90
9790;DHT22;4934;50.852;8.098;2023-09-18T07:35:02;19.10;99.90
9790;DHT22;4934;50.852;8.098;2023-09-18T07:37:29;19.10;99.90
9790;DHT22;4934;50.852;8.098;2023-09-18T07:39:55;19.10;99.90
9790;DHT22;4934;50.852;8.098;2023-09-18T07:42:24;19.10;99.90
9790;DHT22;4934;50.852;8.098;2023-09-18T07:44:50;19.10;99.90
9790;DHT22;4934;50.852;8.098;2023-09-18T07:47:16;19.10;99.90
9790;DHT22;4934;50.852;8.098;2023-09-18T07:49:42;19.00;99.90
9790;DHT22;4934;50.852;8.098;2023-09-18T07:52:07;19.10;99.90
9790;DHT22;4934;50.852;8.098;2023-09-18T07:54:33;19.00;99.90
9790;DHT22;4934;50.852;8.098;2023-09-18T07:56:58;19.00;99.90
9790;DHT22;4934;50.852;8.098;2023-09-18T07:59:25;19.00;99.90
9790;DHT22;4934;50.852;8.098;2023-09-18T08:01:51;19.00;99.90
9790;DHT22;4934;50.852;8.098;2023-09-18T08:04:17;19.10;99.90
9790;DHT22;4934;50.852;8.098;2023-09-18T08:06:43;19.10;99.90
9790;DHT22;4934;50.852;8.098;2023-09-18T08:09:08;19.00;99.90
9790;DHT22;4934;50.852;8.098;2023-09-18T08:11:41;19.10;99.90
9790;DHT22;4934;50.852;8.098;2023-09-18T08:14:08;19.10;99.90
9790;DHT22;4934;50.852;8.098;2023-09-18T08:16:34;19.20;99.90
9790;DHT22;4934;50.852;8.098;2023-09-18T08:19:01;19.20;99.90
9790;DHT22;4934;50.852;8.098;2023-09-18T08:21:26;19.30;99.90
9790;DHT22;4934;50.852;8.098;2023-09-18T08:23:55;19.40;99.90
9790;DHT22;4934;50.852;8.098;2023-09-18T08:26:24;19.60;99.90
9790;DHT22;4934;50.852;8.098;2023-09-18T08:28:51;19.80;99.90
9790;DHT22;4934;50.852;8.098;2023-09-18T08:31:16;20.00;99.90
9790;DHT22;4934;50.852;8.098;2023-09-18T08:33:43;20.20;99.90
9790;DHT22;4934;50.852;8.098;2023-09-18T08:36:09;20.30;99.90
9790;DHT22;4934;50.852;8.098;2023-09-18T08:38:35;20.40;99.90
9790;DHT22;4934;50.852;8.098;2023-09-18T08:41:00;20.50;99.90
9790;DHT22;4934;50.852;8.098;2023-09-18T08:43:26;20.50;99.90
9790;DHT22;4934;50.852;8.098;2023-09-18T08:45:55;20.50;99.90
9790;DHT22;4934;50.852;8.098;2023-09-18T08:48:27;20.50;99.90
9790;DHT22;4934;50.852;8.098;2023-09-18T08:51:03;20.60;99.90
9790;DHT22;4934;50.852;8.098;2023-09-18T08:53:34;20.70;99.90
9790;DHT22;4934;50.852;8.098;2023-09-18T08:56:00;20.70;99.90
9790;DHT22;4934;50.852;8.098;2023-09-18T08:58:29;20.70;99.90
9790;DHT22;4934;50.852;8.098;2023-09-18T09:00:57;20.70;99.90
9790;DHT22;4934;50.852;8.098;2023-09-18T09:03:23;20.80;99.90
9790;DHT22;4934;50.852;8.098;2023-09-18T09:05:49;20.90;99.90
9790;DHT22;4934;50.852;8.098;2023-09-18T09:08:15;20.90;99.90
9790;DHT22;4934;50.852;8.098;2023-09-18T09:10:41;21.00;99.90
9790;DHT22;4934;50.852;8.098;2023-09-18T09:13:07;21.10;99.90
9790;DHT22;4934;50.852;8.098;2023-09-18T09:15:43;21.20;99.90
9790;DHT22;4934;50.852;8.098;2023-09-18T09:18:13;21.20;99.90
9790;DHT22;4934;50.852;8.098;2023-09-18T09:20:40;21.30;99.90
9790;DHT22;4934;50.852;8.098;2023-09-18T09:23:09;21.40;99.90
9790;DHT22;4934;50.852;8.098;2023-09-18T09:25:35;21.30;99.90
9790;DHT22;4934;50.852;8.098;2023-09-18T09:28:06;21.40;99.90
9790;DHT22;4934;50.852;8.098;2023-09-18T09:30:34;21.40;99.90
9790;DHT22;4934;50.852;8.098;2023-09-18T09:33:02;21.40;99.90
9790;DHT22;4934;50.852;8.098;2023-09-18T09:35:33;21.30;99.90
9790;DHT22;4934;50.852;8.098;2023-09-18T09:38:12;21.40;99.90
9790;DHT22;4934;50.852;8.098;2023-09-18T09:40:41;21.50;99.90
9790;DHT22;4934;50.852;8.098;2023-09-18T09:43:10;21.40;99.90
9790;DHT22;4934;50.852;8.098;2023-09-18T09:45:36;21.40;99.90
9790;DHT22;4934;50.852;8.098;2023-09-18T09:48:04;21.40;99.90
9790;DHT22;4934;50.852;8.098;2023-09-18T09:50:31;21.60;99.90
9790;DHT22;4934;50.852;8.098;2023-09-18T09:52:58;21.50;99.90
9790;DHT22;4934;50.852;8.098;2023-09-18T09:55:27;21.60;99.90
9790;DHT22;4934;50.852;8.098;2023-09-18T09:57:58;21.80;99.90
9790;DHT22;4934;50.852;8.098;2023-09-18T10:00:40;22.00;99.90
9790;DHT22;4934;50.852;8.098;2023-09-18T10:03:13;21.90;99.90
9790;DHT22;4934;50.852;8.098;2023-09-18T10:05:45;21.80;99.90
9790;DHT22;4934;50.852;8.098;2023-09-18T10:08:13;21.50;99.90
9790;DHT22;4934;50.852;8.098;2023-09-18T10:10:44;21.30;99.90
9790;DHT22;4934;50.852;8.098;2023-09-18T10:13:26;21.30;99.90
9790;DHT22;4934;50.852;8.098;2023-09-18T10:15:53;21.40;99.90
9790;DHT22;4934;50.852;8.098;2023-09-18T10:24:24;21.40;99.90
9790;DHT22;4934;50.852;8.098;2023-09-18T10:26:58;21.50;99.90
9790;DHT22;4934;50.852;8.098;2023-09-18T10:29:24;21.60;99.90
9790;DHT22;4934;50.852;8.098;2023-09-18T10:31:51;21.80;99.90
9790;DHT22;4934;50.852;8.098;2023-09-18T10:34:19;21.60;99.90
9790;DHT22;4934;50.852;8.098;2023-09-18T10:36:50;21.60;99.90
9790;DHT22;4934;50.852;8.098;2023-09-18T10:39:16;21.70;99.90
9790;DHT22;4934;50.852;8.098;2023-09-18T10:41:50;21.70;99.90
9790;DHT22;4934;50.852;8.098;2023-09-18T10:44:17;21.80;99.90
9790;DHT22;4934;50.852;8.098;2023-09-18T10:46:48;21.80;99.90
9790;DHT22;4934;50.852;8.098;2023-09-18T10:49:15;21.90;99.90
9790;DHT22;4934;50.852;8.098;2023-09-18T10:51:40;21.70;99.90
9790;DHT22;4934;50.852;8.098;2023-09-18T10:54:13;21.60;99.90
9790;DHT22;4934;50.852;8.098;2023-09-18T10:56:42;21.60;99.90
9790;DHT22;4934;50.852;8.098;2023-09-18T10:59:08;21.60;99.90
9790;DHT22;4934;50.852;8.098;2023-09-18T11:01:34;21.70;99.90
9790;DHT22;4934;50.852;8.098;2023-09-18T11:04:03;21.60;99.90
9790;DHT22;4934;50.852;8.098;2023-09-18T11:06:30;21.40;99.90
9790;DHT22;4934;50.852;8.098;2023-09-18T11:09:09;21.40;99.90
9790;DHT22;4934;50.852;8.098;2023-09-18T11:11:35;21.20;99.90
9790;DHT22;4934;50.852;8.098;2023-09-18T11:14:01;21.20;99.90
9790;DHT22;4934;50.852;8.098;2023-09-18T11:19:04;20.80;99.90
9790;DHT22;4934;50.852;8.098;2023-09-18T11:21:34;20.90;99.90
9790;DHT22;4934;50.852;8.098;2023-09-18T11:26:33;20.90;99.90
9790;DHT22;4934;50.852;8.098;2023-09-18T11:29:08;20.90;99.90
9790;DHT22;4934;50.852;8.098;2023-09-18T11:31:44;20.90;99.90
9790;DHT22;4934;50.852;8.098;2023-09-18T11:34:22;20.90;99.90
9790;DHT22;4934;50.852;8.098;2023-09-18T11:36:48;20.70;99.90
9790;DHT22;4934;50.852;8.098;2023-09-18T11:39:33;20.70;99.90
9790;DHT22;4934;50.852;8.098;2023-09-18T11:42:17;20.70;99.90
9790;DHT22;4934;50.852;8.098;2023-09-18T11:44:44;20.90;99.90
9790;DHT22;4934;50.852;8.098;2023-09-18T11:47:17;20.90;99.90
9790;DHT22;4934;50.852;8.098;2023-09-18T11:50:05;20.90;99.90
9790;DHT22;4934;50.852;8.098;2023-09-18T11:52:36;20.90;99.90
9790;DHT22;4934;50.852;8.098;2023-09-18T11:55:02;20.90;99.90
9790;DHT22;4934;50.852;8.098;2023-09-18T11:57:29;21.00;99.90
9790;DHT22;4934;50.852;8.098;2023-09-18T11:59:55;21.20;99.90
9790;DHT22;4934;50.852;8.098;2023-09-18T12:02:29;21.20;99.90
9790;DHT22;4934;50.852;8.098;2023-09-18T12:07:37;21.50;99.90
9790;DHT22;4934;50.852;8.098;2023-09-18T12:10:05;21.80;99.90
9790;DHT22;4934;50.852;8.098;2023-09-18T12:12:32;21.90;99.90
9790;DHT22;4934;50.852;8.098;2023-09-18T12:14:58;22.20;99.90
9790;DHT22;4934;50.852;8.098;2023-09-18T12:17:23;22.20;99.90
9790;DHT22;4934;50.852;8.098;2023-09-18T12:19:55;22.30;99.90
9790;DHT22;4934;50.852;8.098;2023-09-18T12:22:28;22.40;99.90
9790;DHT22;4934;50.852;8.098;2023-09-18T12:25:11;22.30;99.90
9790;DHT22;4934;50.852;8.098;2023-09-18T12:27:37;22.40;99.90
9790;DHT22;4934;50.852;8.098;2023-09-18T12:30:06;22.60;99.90
9790;DHT22;4934;50.852;8.098;2023-09-18T12:32:35;22.80;99.90
9790;DHT22;4934;50.852;8.098;2023-09-18T12:35:01;22.90;99.90
9790;DHT22;4934;50.852;8.098;2023-09-18T12:37:27;22.90;99.90
9790;DHT22;4934;50.852;8.098;2023-09-18T12:39:53;22.90;99.90
9790;DHT22;4934;50.852;8.098;2023-09-18T12:42:19;22.90;99.90
9790;DHT22;4934;50.852;8.098;2023-09-18T12:44:47;22.90;99.90
9790;DHT22;4934;50.852;8.098;2023-09-18T12:47:13;22.90;99.90
9790;DHT22;4934;50.852;8.098;2023-09-18T12:49:38;23.00;99.90
9790;DHT22;4934;50.852;8.098;2023-09-18T12:52:05;23.20;99.90
9790;DHT22;4934;50.852;8.098;2023-09-18T12:54:40;23.20;99.90
9790;DHT22;4934;50.852;8.098;2023-09-18T12:57:07;23.20;99.90
9790;DHT22;4934;50.852;8.098;2023-09-18T12:59:34;23.20;99.90
9790;DHT22;4934;50.852;8.098;2023-09-18T13:02:02;23.30;99.90
9790;DHT22;4934;50.852;8.098;2023-09-18T13:04:33;23.30;99.90
9790;DHT22;4934;50.852;8.098;2023-09-18T13:07:14;23.60;99.90
9790;DHT22;4934;50.852;8.098;2023-09-18T13:09:40;24.00;99.90
9790;DHT22;4934;50.852;8.098;2023-09-18T13:12:06;24.10;99.90
9790;DHT22;4934;50.852;8.098;2023-09-18T13:14:58;24.00;99.90
9790;DHT22;4934;50.852;8.098;2023-09-18T13:17:41;24.10;99.90
9790;DHT22;4934;50.852;8.098;2023-09-18T13:20:18;24.20;99.90
9790;DHT22;4934;50.852;8.098;2023-09-18T13:22:49;24.20;99.90
9790;DHT22;4934;50.852;8.098;2023-09-18T13:25:39;24.30;99.90
9790;DHT22;4934;50.852;8.098;2023-09-18T13:28:08;24.20;99.90
9790;DHT22;4934;50.852;8.098;2023-09-18T13:30:36;24.20;99.90
9790;DHT22;4934;50.852;8.098;2023-09-18T13:33:08;23.90;99.90
9790;DHT22;4934;50.852;8.098;2023-09-18T13:35:35;23.80;99.90
9790;DHT22;4934;50.852;8.098;2023-09-18T13:38:03;23.60;99.90
9790;DHT22;4934;50.852;8.098;2023-09-18T13:40:34;23.50;99.90
9790;DHT22;4934;50.852;8.098;2023-09-18T13:43:01;23.40;99.90
9790;DHT22;4934;50.852;8.098;2023-09-18T13:45:29;23.40;99.90
9790;DHT22;4934;50.852;8.098;2023-09-18T13:47:55;23.30;99.90
9790;DHT22;4934;50.852;8.098;2023-09-18T13:50:21;23.50;99.90
9790;DHT22;4934;50.852;8.098;2023-09-18T13:52:47;23.60;99.90
9790;DHT22;4934;50.852;8.098;2023-09-18T13:55:12;24.00;99.90
9790;DHT22;4934;50.852;8.098;2023-09-18T13:57:38;24.30;99.90
9790;DHT22;4934;50.852;8.098;2023-09-18T14:00:06;24.50;99.90
9790;DHT22;4934;50.852;8.098;2023-09-18T14:02:34;24.60;99.90
9790;DHT22;4934;50.852;8.098;2023-09-18T14:04:59;24.80;99.90
9790;DHT22;4934;50.852;8.098;2023-09-18T14:07:25;24.80;99.90
9790;DHT22;4934;50.852;8.098;2023-09-18T14:09:51;24.80;99.90
9790;DHT22;4934;50.852;8.098;2023-09-18T14:12:16;24.70;99.90
9790;DHT22;4934;50.852;8.098;2023-09-18T14:14:42;24.70;99.90
9790;DHT22;4934;50.852;8.098;2023-09-18T14:17:09;24.60;99.90
9790;DHT22;4934;50.852;8.098;2023-09-18T14:19:35;24.40;99.90
9790;DHT22;4934;50.852;8.098;2023-09-18T14:22:06;24.20;99.90
9790;DHT22;4934;50.852;8.098;2023-09-18T14:24:32;24.20;99.90
9790;DHT22;4934;50.852;8.098;2023-09-18T14:27:06;24.30;99.90
9790;DHT22;4934;50.852;8.098;2023-09-18T14:29:34;24.20;99.90
9790;DHT22;4934;50.852;8.098;2023-09-18T14:32:00;24.20;99.90
9790;DHT22;4934;50.852;8.098;2023-09-18T14:34:26;24.40;99.90
9790;DHT22;4934;50.852;8.098;2023-09-18T14:36:51;24.40;99.90
9790;DHT22;4934;50.852;8.098;2023-09-18T14:39:17;24.40;99.90
9790;DHT22;4934;50.852;8.098;2023-09-18T14:41:43;24.30;99.90
9790;DHT22;4934;50.852;8.098;2023-09-18T14:44:09;24.30;99.90
9790;DHT22;4934;50.852;8.098;2023-09-18T14:46:36;24.20;99.90
9790;DHT22;4934;50.852;8.098;2023-09-18T14:49:03;24.30;99.90
9790;DHT22;4934;50.852;8.098;2023-09-18T14:51:28;24.30;99.90
9790;DHT22;4934;50.852;8.098;2023-09-18T14:53:55;24.40;99.90
9790;DHT22;4934;50.852;8.098;2023-09-18T14:56:20;24.40;99.90
9790;DHT22;4934;50.852;8.098;2023-09-18T14:58:46;24.30;99.90
9790;DHT22;4934;50.852;8.098;2023-09-18T15:01:12;24.10;99.90
9790;DHT22;4934;50.852;8.098;2023-09-18T15:03:57;24.10;99.90
9790;DHT22;4934;50.852;8.098;2023-09-18T15:06:22;24.10;99.90
9790;DHT22;4934;50.852;8.098;2023-09-18T15:08:48;24.00;99.90
9790;DHT22;4934;50.852;8.098;2023-09-18T15:11:14;23.90;99.90
9790;DHT22;4934;50.852;8.098;2023-09-18T15:13:42;23.70;99.90
9790;DHT22;4934;50.852;8.098;2023-09-18T15:16:08;23.70;99.90
9790;DHT22;4934;50.852;8.098;2023-09-18T15:18:33;23.70;99.90
9790;DHT22;4934;50.852;8.098;2023-09-18T15:20:59;23.80;99.90
9790;DHT22;4934;50.852;8.098;2023-09-18T15:23:25;23.80;99.90
9790;DHT22;4934;50.852;8.098;2023-09-18T15:25:52;23.90;99.90
9790;DHT22;4934;50.852;8.098;2023-09-18T15:28:19;23.80;99.90
9790;DHT22;4934;50.852;8.098;2023-09-18T15:30:45;23.70;99.90
9790;DHT22;4934;50.852;8.098;2023-09-18T15:33:11;23.60;99.90
9790;DHT22;4934;50.852;8.098;2023-09-18T15:35:38;23.50;99.90
9790;DHT22;4934;50.852;8.098;2023-09-18T15:38:04;23.50;99.90
9790;DHT22;4934;50.852;8.098;2023-09-18T15:40:32;23.70;99.90
9790;DHT22;4934;50.852;8.098;2023-09-18T15:42:58;23.70;99.90
9790;DHT22;4934;50.852;8.098;2023-09-18T15:45:24;23.60;99.90
9790;DHT22;4934;50.852;8.098;2023-09-18T15:47:49;23.50;99.90
9790;DHT22;4934;50.852;8.098;2023-09-18T15:50:16;23.50;99.90
9790;DHT22;4934;50.852;8.098;2023-09-18T15:52:43;23.50;99.90
9790;DHT22;4934;50.852;8.098;2023-09-18T15:55:09;23.50;99.90
9790;DHT22;4934;50.852;8.098;2023-09-18T15:57:37;23.40;99.90
9790;DHT22;4934;50.852;8.098;2023-09-18T16:00:05;23.40;99.90
9790;DHT22;4934;50.852;8.098;2023-09-18T16:02:32;23.40;99.90
9790;DHT22;4934;50.852;8.098;2023-09-18T16:04:58;23.30;99.90
9790;DHT22;4934;50.852;8.098;2023-09-18T16:07:25;23.30;99.90
9790;DHT22;4934;50.852;8.098;2023-09-18T16:09:51;23.30;99.90
9790;DHT22;4934;50.852;8.098;2023-09-18T16:12:19;23.30;99.90
9790;DHT22;4934;50.852;8.098;2023-09-18T16:14:44;23.10;99.90
9790;DHT22;4934;50.852;8.098;2023-09-18T16:17:10;23.00;99.90
9790;DHT22;4934;50.852;8.098;2023-09-18T16:19:36;22.90;99.90